Time;durP1;ratioP1;P1;durP2;ratioP2;P2;SDS_P1;SDS_P2;PMS_P1;PMS_P2;Temp;Humidity;BMP_temperature;BMP_pressure;BME280_temperature;BME280_humidity;BME280_pressure;Samples;Min_cycle;Max_cycle;Signal;HPM_P1;HPM_P2
2023/01/30 00:01:33;;;;;;;16.27;8.88;;;6.50;99.90;;;;;;5070452;28;20048;-85
2023/01/30 00:03:59;;;;;;;19.77;9.35;;;6.50;99.90;;;;;;5092052;28;20101;-85
2023/01/30 00:06:25;;;;;;;17.67;8.68;;;6.50;99.90;;;;;;5112399;28;20047;-85
2023/01/30 00:08:51;;;;;;;17.13;8.73;;;6.60;99.90;;;;;;5093162;28;20457;-85
2023/01/30 00:11:18;;;;;;;21.50;8.68;;;6.60;99.90;;;;;;5096634;27;20077;-85
2023/01/30 00:13:45;;;;;;;17.02;8.93;;;6.60;99.90;;;;;;5110617;27;20034;-85
2023/01/30 00:16:11;;;;;;;17.08;9.07;;;6.60;99.90;;;;;;5115645;27;20438;-85
2023/01/30 00:18:38;;;;;;;18.90;8.57;;;6.70;99.90;;;;;;5115891;27;20114;-85
2023/01/30 00:21:06;;;;;;;22.05;8.95;;;6.80;99.90;;;;;;5098309;27;20070;-85
2023/01/30 00:23:34;;;;;;;19.42;7.97;;;6.70;99.90;;;;;;5097414;27;20065;-86
2023/01/30 00:25:59;;;;;;;19.48;8.63;;;6.70;99.90;;;;;;5115040;27;20047;-85
2023/01/30 00:28:26;;;;;;;18.70;8.10;;;6.80;99.90;;;;;;5097542;27;20091;-85
2023/01/30 00:30:53;;;;;;;15.38;7.53;;;7.00;99.90;;;;;;5082655;28;20048;-85
2023/01/30 00:33:21;;;;;;;18.50;8.55;;;7.10;99.90;;;;;;5091477;28;20036;-85
2023/01/30 00:35:49;;;;;;;17.02;8.27;;;6.80;99.90;;;;;;5090618;28;20447;-86
2023/01/30 00:38:16;;;;;;;16.65;7.82;;;6.80;99.90;;;;;;5056993;28;20044;-85
2023/01/30 00:40:42;;;;;;;17.67;6.97;;;6.80;99.90;;;;;;5091262;28;20075;-84
2023/01/30 00:48:43;;;;;;;16.98;7.10;;;6.80;99.90;;;;;;5091145;28;20044;-84
2023/01/30 00:51:09;;;;;;;16.67;7.60;;;6.80;99.90;;;;;;5091155;28;20050;-85
2023/01/30 00:53:35;;;;;;;16.08;7.78;;;6.80;99.90;;;;;;5074208;28;20066;-85
2023/01/30 00:56:01;;;;;;;19.38;8.35;;;7.10;99.90;;;;;;5073106;28;20035;-84
2023/01/30 00:58:26;;;;;;;17.08;7.15;;;6.70;99.90;;;;;;5090443;28;20075;-85
2023/01/30 01:00:52;;;;;;;18.98;7.05;;;6.70;99.90;;;;;;5073948;28;20097;-86
2023/01/30 01:03:18;;;;;;;17.83;7.35;;;6.70;99.90;;;;;;5090680;28;20032;-86
2023/01/30 01:05:44;;;;;;;18.90;7.50;;;6.60;99.90;;;;;;5089955;28;20086;-85
2023/01/30 01:08:10;;;;;;;24.50;8.77;;;6.60;99.90;;;;;;5072394;28;20490;-86
2023/01/30 01:10:36;;;;;;;16.02;6.82;;;6.60;99.90;;;;;;5089713;28;20607;-86
2023/01/30 01:13:02;;;;;;;20.45;7.43;;;6.90;99.90;;;;;;5090473;28;20123;-86
2023/01/30 01:15:29;;;;;;;17.30;7.15;;;6.60;99.90;;;;;;5073434;28;20039;-86
2023/01/30 01:17:55;;;;;;;13.63;6.28;;;6.60;99.90;;;;;;5085479;28;20043;-87
2023/01/30 01:20:22;;;;;;;15.75;6.68;;;6.60;99.90;;;;;;5072248;28;20032;-86
2023/01/30 01:22:52;;;;;;;13.10;5.05;;;6.60;99.90;;;;;;5088448;28;20064;-86
2023/01/30 01:25:18;;;;;;;14.82;5.70;;;6.60;99.90;;;;;;5082738;28;20297;-86
2023/01/30 01:27:45;;;;;;;18.00;6.30;;;6.60;99.90;;;;;;5083714;28;20274;-86
2023/01/30 01:30:11;;;;;;;13.88;5.88;;;6.60;99.90;;;;;;5071993;28;20047;-86
2023/01/30 01:32:37;;;;;;;14.02;5.10;;;6.60;99.90;;;;;;5086926;28;20580;-86
2023/01/30 01:35:03;;;;;;;15.77;5.43;;;6.60;99.90;;;;;;5069020;28;20111;-86
2023/01/30 01:37:29;;;;;;;13.50;5.07;;;6.60;99.90;;;;;;5089205;28;20440;-86
2023/01/30 01:42:39;;;;;;;11.75;4.97;;;6.60;99.90;;;;;;5090170;28;20051;-87
2023/01/30 01:45:07;;;;;;;11.48;4.38;;;6.80;99.90;;;;;;5075953;28;20069;-86
2023/01/30 01:47:34;;;;;;;13.35;4.97;;;6.60;99.90;;;;;;5106804;28;20047;-85
2023/01/30 01:50:02;;;;;;;11.13;4.65;;;6.60;99.90;;;;;;5071639;28;20072;-86
2023/01/30 01:52:28;;;;;;;11.38;4.93;;;6.60;99.90;;;;;;5073118;28;20044;-86
2023/01/30 01:54:58;;;;;;;12.43;4.72;;;6.60;99.90;;;;;;5089591;28;20032;-86
2023/01/30 01:57:42;;;;;;;9.65;4.10;;;6.60;99.90;;;;;;5072895;28;20065;-86
2023/01/30 02:00:14;;;;;;;12.57;4.57;;;6.70;99.90;;;;;;5071537;28;20047;-86
2023/01/30 02:02:45;;;;;;;13.35;5.15;;;6.70;99.90;;;;;;5089333;28;20051;-86
2023/01/30 02:05:12;;;;;;;14.02;4.80;;;7.00;99.90;;;;;;5071569;28;20040;-85
2023/01/30 02:07:47;;;;;;;16.00;4.88;;;6.70;99.90;;;;;;5072441;28;20055;-86
2023/01/30 02:10:19;;;;;;;14.02;4.88;;;6.70;99.90;;;;;;5075875;28;20236;-86
2023/01/30 02:12:45;;;;;;;14.50;5.20;;;6.70;99.90;;;;;;5089102;28;20147;-86
2023/01/30 02:15:11;;;;;;;15.45;4.82;;;6.70;99.90;;;;;;5071029;28;20202;-85
2023/01/30 02:17:37;;;;;;;15.60;5.53;;;6.70;99.90;;;;;;5088297;28;20035;-85
2023/01/30 02:20:14;;;;;;;15.57;5.50;;;6.80;99.90;;;;;;5072371;28;20168;-86
2023/01/30 02:23:14;;;;;;;17.15;6.15;;;6.80;99.90;;;;;;5065992;28;20082;-86
2023/01/30 02:26:13;;;;;;;22.55;6.93;;;6.80;99.90;;;;;;5078164;28;20044;-86
2023/01/30 02:29:00;;;;;;;16.40;6.25;;;6.80;99.90;;;;;;5080196;28;20063;-85
2023/01/30 02:31:47;;;;;;;22.17;6.47;;;6.90;99.90;;;;;;5087595;28;20036;-85
2023/01/30 02:34:49;;;;;;;20.02;6.30;;;6.90;99.90;;;;;;5069629;28;20044;-85
2023/01/30 02:37:15;;;;;;;20.27;7.30;;;6.90;99.90;;;;;;5070010;28;20043;-86
2023/01/30 02:40:06;;;;;;;23.13;6.63;;;7.00;99.90;;;;;;5070991;28;20409;-86
2023/01/30 02:42:53;;;;;;;25.58;6.50;;;6.90;99.90;;;;;;5102167;28;20047;-86
2023/01/30 02:45:55;;;;;;;23.15;6.80;;;6.90;99.90;;;;;;5070962;28;20492;-86
2023/01/30 02:48:26;;;;;;;21.20;6.80;;;6.90;99.90;;;;;;5074619;28;20088;-86
2023/01/30 02:51:04;;;;;;;20.02;6.70;;;7.00;99.90;;;;;;5061041;28;20097;-85
2023/01/30 02:53:32;;;;;;;16.17;5.53;;;6.90;99.90;;;;;;5087466;28;20839;-86
2023/01/30 02:55:58;;;;;;;20.85;5.82;;;7.30;99.90;;;;;;5085898;28;20092;-85
2023/01/30 02:58:28;;;;;;;22.13;5.80;;;7.00;99.90;;;;;;5069561;28;20075;-86
2023/01/30 03:01:12;;;;;;;23.63;5.78;;;7.00;99.90;;;;;;5085872;28;20040;-86
2023/01/30 03:04:10;;;;;;;22.70;6.15;;;7.00;99.90;;;;;;5087122;28;20071;-85
2023/01/30 03:06:47;;;;;;;26.15;6.15;;;5.90;99.90;;;;;;5087501;28;20051;-86
2023/01/30 03:09:46;;;;;;;18.80;5.05;;;7.00;99.90;;;;;;5101270;28;20087;-86
2023/01/30 03:12:23;;;;;;;23.67;5.32;;;7.10;99.90;;;;;;5080461;28;20250;-85
2023/01/30 03:14:49;;;;;;;19.63;5.32;;;7.10;99.90;;;;;;5074483;28;20051;-86
2023/01/30 03:17:17;;;;;;;19.67;4.35;;;7.10;99.90;;;;;;5087064;28;20042;-85
2023/01/30 03:19:43;;;;;;;23.35;5.15;;;7.10;99.90;;;;;;5086384;28;20437;-85
2023/01/30 03:22:09;;;;;;;24.27;5.35;;;7.10;99.90;;;;;;5069574;28;20048;-86
2023/01/30 03:24:34;;;;;;;22.35;4.72;;;7.10;99.90;;;;;;5086895;28;20054;-86
2023/01/30 03:27:09;;;;;;;16.17;3.75;;;8.40;99.90;;;;;;5055315;28;20179;-85
2023/01/30 03:29:35;;;;;;;17.52;3.92;;;7.10;99.90;;;;;;5082844;28;20071;-85
2023/01/30 03:32:01;;;;;;;17.30;4.50;;;7.00;99.90;;;;;;5092265;28;20036;-86
2023/01/30 03:34:26;;;;;;;21.42;4.65;;;7.30;99.90;;;;;;5075207;28;20059;-86
2023/01/30 03:36:52;;;;;;;19.45;4.30;;;7.00;99.90;;;;;;5092562;28;20075;-85
2023/01/30 03:39:18;;;;;;;15.35;3.95;;;6.90;99.90;;;;;;5090316;28;20501;-86
2023/01/30 03:41:44;;;;;;;20.88;4.35;;;6.90;99.90;;;;;;5092135;28;20047;-85
2023/01/30 03:44:10;;;;;;;20.20;4.93;;;6.90;99.90;;;;;;5091510;28;20089;-85
2023/01/30 03:46:36;;;;;;;22.13;4.60;;;6.90;99.90;;;;;;5092362;28;20047;-86
2023/01/30 03:49:01;;;;;;;20.10;3.78;;;6.80;99.90;;;;;;5075090;28;20075;-86
2023/01/30 03:51:27;;;;;;;19.15;4.80;;;6.80;99.90;;;;;;5090885;28;20515;-85
2023/01/30 03:53:53;;;;;;;18.08;4.07;;;6.80;99.90;;;;;;5074158;28;20066;-86
2023/01/30 03:56:18;;;;;;;23.58;5.05;;;6.70;99.90;;;;;;5091975;28;20036;-86
2023/01/30 03:58:44;;;;;;;25.02;5.68;;;6.70;99.90;;;;;;5075015;28;20039;-86
2023/01/30 04:01:10;;;;;;;23.40;4.78;;;6.70;99.90;;;;;;5090796;28;20077;-85
2023/01/30 04:03:36;;;;;;;23.10;4.40;;;6.80;99.90;;;;;;5058267;28;20078;-85
2023/01/30 04:06:01;;;;;;;23.33;4.25;;;6.60;99.90;;;;;;5091749;28;20040;-86
2023/01/30 04:08:27;;;;;;;19.65;4.00;;;6.60;99.90;;;;;;5074717;28;20119;-85
2023/01/30 04:10:53;;;;;;;20.23;3.92;;;6.60;99.90;;;;;;5067330;28;20075;-85
2023/01/30 04:13:18;;;;;;;19.42;3.90;;;6.70;99.90;;;;;;5070531;28;20035;-84
2023/01/30 04:15:44;;;;;;;23.27;4.68;;;6.70;99.90;;;;;;5074975;28;20051;-85
2023/01/30 04:18:10;;;;;;;23.00;3.88;;;6.50;99.90;;;;;;5091484;28;20061;-85
2023/01/30 04:20:37;;;;;;;19.48;4.20;;;6.50;99.90;;;;;;5074835;28;20043;-85
2023/01/30 04:23:03;;;;;;;25.05;4.05;;;6.50;99.90;;;;;;5090435;28;20043;-85
2023/01/30 04:25:29;;;;;;;22.83;4.68;;;6.50;99.90;;;;;;5069826;28;20409;-85
2023/01/30 04:27:54;;;;;;;20.20;3.97;;;6.40;99.90;;;;;;5065564;28;20036;-85
2023/01/30 04:30:20;;;;;;;23.55;4.15;;;6.40;99.90;;;;;;5069544;28;20097;-85
2023/01/30 04:32:46;;;;;;;25.27;4.63;;;6.30;99.90;;;;;;5071959;28;20064;-85
2023/01/30 04:35:12;;;;;;;23.52;3.78;;;6.30;99.90;;;;;;5055568;28;20036;-85
2023/01/30 04:37:37;;;;;;;21.27;4.28;;;6.30;99.90;;;;;;5088805;28;20071;-85
2023/01/30 04:40:04;;;;;;;18.75;3.88;;;6.30;99.90;;;;;;5054504;28;20115;-86
2023/01/30 04:42:29;;;;;;;19.45;3.72;;;6.30;99.90;;;;;;5071703;28;20089;-85
2023/01/30 04:44:55;;;;;;;23.55;4.13;;;6.30;99.90;;;;;;5087684;28;20071;-84
2023/01/30 04:47:21;;;;;;;23.70;3.90;;;6.20;99.90;;;;;;5071324;28;20130;-85
2023/01/30 04:49:46;;;;;;;23.08;4.88;;;6.20;99.90;;;;;;5052893;28;20564;-85
2023/01/30 04:52:12;;;;;;;22.80;4.63;;;6.20;99.90;;;;;;5079090;28;20040;-85
2023/01/30 04:54:38;;;;;;;22.75;4.65;;;6.20;99.90;;;;;;5098319;28;20036;-86
2023/01/30 04:57:03;;;;;;;22.13;4.70;;;6.40;99.90;;;;;;5073133;28;20089;-85
2023/01/30 04:59:29;;;;;;;17.65;4.35;;;6.10;99.90;;;;;;5090655;28;20040;-86
2023/01/30 05:01:55;;;;;;;24.02;4.68;;;6.30;99.90;;;;;;5074160;28;20052;-85
2023/01/30 05:04:20;;;;;;;25.85;5.45;;;6.10;99.90;;;;;;5056535;28;20493;-85
2023/01/30 05:06:46;;;;;;;23.15;4.13;;;6.10;99.90;;;;;;5057192;28;20409;-85
2023/01/30 05:09:12;;;;;;;24.92;4.60;;;6.00;99.90;;;;;;5057045;28;20048;-85
2023/01/30 05:11:38;;;;;;;22.55;4.50;;;;;;;;;;5074025;28;20132;-85
2023/01/30 05:14:04;;;;;;;25.00;5.32;;;6.10;99.90;;;;;;5089073;28;20082;-85
2023/01/30 05:16:29;;;;;;;20.23;4.47;;;6.10;99.90;;;;;;5073760;28;20036;-85
2023/01/30 05:18:55;;;;;;;23.27;4.35;;;6.10;99.90;;;;;;5056747;28;20048;-85
2023/01/30 05:21:29;;;;;;;23.60;4.45;;;6.10;99.90;;;;;;5090350;28;20067;-85
2023/01/30 05:23:56;;;;;;;21.92;3.80;;;6.10;99.90;;;;;;5089525;28;20067;-85
2023/01/30 05:26:23;;;;;;;21.33;5.10;;;6.10;99.90;;;;;;5072998;28;20048;-85
2023/01/30 05:28:53;;;;;;;24.00;5.10;;;6.00;99.90;;;;;;5056412;28;20100;-85
2023/01/30 05:31:19;;;;;;;19.98;4.28;;;6.00;99.90;;;;;;5090200;28;20144;-85
2023/01/30 05:33:47;;;;;;;23.98;4.28;;;6.00;99.90;;;;;;5073329;28;20256;-85
2023/01/30 05:36:16;;;;;;;22.70;4.95;;;6.00;99.90;;;;;;5071981;28;20036;-85
2023/01/30 05:38:43;;;;;;;26.88;4.32;;;5.90;99.90;;;;;;5090256;28;20044;-85
2023/01/30 05:41:10;;;;;;;25.05;4.57;;;5.90;99.90;;;;;;5089803;28;20119;-85
2023/01/30 05:43:36;;;;;;;25.35;4.43;;;5.90;99.90;;;;;;5072872;28;20047;-85
2023/01/30 05:46:04;;;;;;;32.05;5.55;;;6.20;99.90;;;;;;5087653;28;20043;-84
2023/01/30 05:48:30;;;;;;;23.55;4.00;;;5.80;99.90;;;;;;5088084;28;20048;-84
2023/01/30 05:50:57;;;;;;;20.83;4.38;;;6.00;99.90;;;;;;5084641;28;20029;-83
2023/01/30 05:53:25;;;;;;;25.30;3.95;;;5.80;99.90;;;;;;5063771;28;20037;-84
2023/01/30 05:55:59;;;;;;;27.48;4.93;;;5.90;99.90;;;;;;5086986;28;20035;-85
2023/01/30 05:58:26;;;;;;;28.75;5.10;;;5.90;99.90;;;;;;5087757;28;20046;-85
2023/01/30 06:00:52;;;;;;;24.33;4.28;;;5.90;99.90;;;;;;5089471;28;20548;-85
2023/01/30 06:03:18;;;;;;;26.52;4.68;;;5.90;99.90;;;;;;5070007;28;20350;-85
2023/01/30 06:05:44;;;;;;;26.67;5.40;;;5.90;99.90;;;;;;5070413;28;20520;-85
2023/01/30 06:08:10;;;;;;;25.38;4.68;;;5.80;99.90;;;;;;5071158;28;20068;-85
2023/01/30 06:10:36;;;;;;;24.95;5.88;;;6.20;99.90;;;;;;5084453;28;20140;-85
2023/01/30 06:13:02;;;;;;;24.85;4.68;;;5.80;99.90;;;;;;5069390;28;20047;-85
2023/01/30 06:15:27;;;;;;;24.30;4.93;;;5.80;99.90;;;;;;5068563;28;20036;-85
2023/01/30 06:17:53;;;;;;;24.92;4.53;;;5.80;99.90;;;;;;5072520;28;20509;-84
2023/01/30 06:20:19;;;;;;;19.92;3.92;;;5.80;99.90;;;;;;5072200;28;20414;-85
2023/01/30 06:22:46;;;;;;;27.30;5.18;;;5.80;99.90;;;;;;5089092;28;20375;-86
2023/01/30 06:25:12;;;;;;;26.50;4.68;;;5.80;99.90;;;;;;5071150;28;20465;-85
2023/01/30 06:27:38;;;;;;;22.48;5.20;;;5.90;99.90;;;;;;5069401;28;20040;-85
2023/01/30 06:30:04;;;;;;;21.23;5.07;;;5.80;99.90;;;;;;5087162;28;20043;-85
2023/01/30 06:32:29;;;;;;;24.65;4.60;;;5.80;99.90;;;;;;5071026;28;20093;-85
2023/01/30 06:34:55;;;;;;;29.50;4.78;;;5.80;99.90;;;;;;5081820;28;21845;-85
2023/01/30 06:37:21;;;;;;;26.38;4.40;;;5.90;99.90;;;;;;5065504;28;20036;-84
2023/01/30 06:39:46;;;;;;;22.17;4.90;;;6.00;99.90;;;;;;5087132;28;20051;-85
2023/01/30 06:42:12;;;;;;;22.00;4.28;;;6.10;99.90;;;;;;5056110;28;20047;-85
2023/01/30 06:44:38;;;;;;;21.33;4.15;;;6.30;99.90;;;;;;5068979;28;20561;-85
2023/01/30 06:47:03;;;;;;;24.38;4.32;;;6.10;99.90;;;;;;5071694;28;20428;-84
2023/01/30 06:49:29;;;;;;;20.65;4.40;;;6.10;99.90;;;;;;5070733;28;20036;-85
2023/01/30 06:51:55;;;;;;;26.58;5.00;;;6.00;99.90;;;;;;5089096;28;20067;-85
2023/01/30 06:54:20;;;;;;;25.25;4.25;;;6.00;99.90;;;;;;5088460;28;20040;-86
2023/01/30 06:56:46;;;;;;;21.45;4.75;;;6.00;99.90;;;;;;5072229;28;20040;-85
2023/01/30 06:59:12;;;;;;;24.35;4.80;;;6.10;99.90;;;;;;5057565;28;20045;-84
2023/01/30 07:01:38;;;;;;;26.50;4.80;;;6.10;99.90;;;;;;5055153;28;20041;-83
2023/01/30 07:04:04;;;;;;;25.45;4.53;;;6.10;99.90;;;;;;5073304;28;20047;-84
2023/01/30 07:06:29;;;;;;;25.75;4.70;;;6.10;99.90;;;;;;5073103;28;20044;-85
2023/01/30 07:08:57;;;;;;;28.13;5.43;;;6.30;99.90;;;;;;5072721;28;20043;-85
2023/01/30 07:11:25;;;;;;;22.80;4.90;;;5.60;99.90;;;;;;5072692;28;20394;-85
2023/01/30 07:13:50;;;;;;;26.05;4.68;;;6.10;99.90;;;;;;5089354;28;20040;-85
2023/01/30 07:16:16;;;;;;;26.27;4.70;;;6.10;99.90;;;;;;5072491;28;20109;-84
2023/01/30 07:18:42;;;;;;;22.92;4.45;;;6.10;99.90;;;;;;5072822;28;20040;-85
2023/01/30 07:21:08;;;;;;;25.38;5.22;;;6.10;99.90;;;;;;5070907;28;20055;-85
2023/01/30 07:23:34;;;;;;;27.92;4.40;;;6.10;99.90;;;;;;5106330;28;20069;-85
2023/01/30 07:26:03;;;;;;;23.75;4.57;;;6.10;99.90;;;;;;5073062;28;20052;-85
2023/01/30 07:28:29;;;;;;;21.75;4.68;;;6.10;99.90;;;;;;5072471;28;20093;-85
2023/01/30 07:30:58;;;;;;;27.85;5.22;;;6.10;99.90;;;;;;5056209;28;20031;-85
2023/01/30 07:33:24;;;;;;;25.50;4.97;;;6.20;99.90;;;;;;5088753;28;20420;-84
2023/01/30 07:35:50;;;;;;;22.08;4.82;;;6.20;99.90;;;;;;5089019;28;20036;-85
2023/01/30 07:38:15;;;;;;;23.73;4.47;;;6.20;99.90;;;;;;5072198;28;20071;-85
2023/01/30 07:40:41;;;;;;;30.92;6.00;;;6.20;99.90;;;;;;5088893;28;20553;-85
2023/01/30 07:43:11;;;;;;;23.20;4.95;;;6.20;99.90;;;;;;5070659;28;20051;-85
2023/01/30 07:45:38;;;;;;;23.20;4.68;;;6.20;99.90;;;;;;5089141;28;20099;-84
2023/01/30 07:48:04;;;;;;;22.25;4.45;;;6.20;99.90;;;;;;5088209;28;20347;-85
2023/01/30 07:50:30;;;;;;;23.73;5.20;;;6.20;99.90;;;;;;5089067;28;20072;-83
2023/01/30 07:52:55;;;;;;;22.23;4.68;;;6.30;99.90;;;;;;5073349;28;20086;-84
2023/01/30 07:55:21;;;;;;;29.92;5.68;;;6.30;99.90;;;;;;5073756;28;20037;-85
2023/01/30 07:57:47;;;;;;;23.02;4.22;;;6.30;99.90;;;;;;5105716;28;20126;-84
2023/01/30 08:00:13;;;;;;;23.40;4.68;;;6.30;99.90;;;;;;5070752;28;20036;-84
2023/01/30 08:02:39;;;;;;;22.92;5.05;;;6.30;99.90;;;;;;5086842;28;20048;-84
2023/01/30 08:05:05;;;;;;;24.88;4.72;;;6.30;99.90;;;;;;5071500;28;20050;-84
2023/01/30 08:07:31;;;;;;;24.30;5.35;;;6.30;99.90;;;;;;5071359;28;20483;-84
2023/01/30 08:09:57;;;;;;;20.88;4.70;;;6.30;99.90;;;;;;5069948;28;20052;-84
2023/01/30 08:12:22;;;;;;;22.60;5.35;;;6.40;99.90;;;;;;5073217;28;20048;-84
2023/01/30 08:14:48;;;;;;;29.40;5.93;;;6.40;99.90;;;;;;5074905;28;20534;-84
2023/01/30 08:17:14;;;;;;;24.77;4.38;;;6.40;99.90;;;;;;5074769;28;20119;-84
2023/01/30 08:19:39;;;;;;;20.42;4.18;;;6.40;99.90;;;;;;5074653;28;20062;-84
2023/01/30 08:22:05;;;;;;;25.02;4.60;;;6.60;99.90;;;;;;5072849;28;20130;-84
2023/01/30 08:24:31;;;;;;;24.42;5.40;;;6.70;99.90;;;;;;5108703;28;20127;-85
2023/01/30 08:26:56;;;;;;;25.80;4.90;;;6.50;99.90;;;;;;5074882;28;20493;-84
2023/01/30 08:29:24;;;;;;;22.15;4.55;;;6.50;99.90;;;;;;5074215;28;20051;-84
2023/01/30 08:31:50;;;;;;;20.20;5.35;;;6.50;99.90;;;;;;5072545;28;20040;-84
2023/01/30 08:34:15;;;;;;;21.35;4.65;;;6.50;99.90;;;;;;5091303;28;20086;-84
2023/01/30 08:36:41;;;;;;;26.00;4.82;;;6.60;99.90;;;;;;5071105;28;20462;-84
2023/01/30 08:39:07;;;;;;;22.63;4.63;;;6.60;99.90;;;;;;5068634;28;20105;-84
2023/01/30 08:41:33;;;;;;;27.58;4.85;;;6.60;99.90;;;;;;5055877;28;20472;-84
2023/01/30 08:43:58;;;;;;;23.17;4.47;;;6.60;99.90;;;;;;5074064;28;20054;-84
2023/01/30 08:46:24;;;;;;;22.73;4.50;;;6.60;99.90;;;;;;5091184;28;20079;-84
2023/01/30 08:48:50;;;;;;;24.13;4.60;;;6.70;99.90;;;;;;5074010;28;20467;-84
2023/01/30 08:51:16;;;;;;;19.65;4.43;;;6.70;99.90;;;;;;5074227;28;20040;-84
2023/01/30 08:53:41;;;;;;;22.50;4.82;;;6.70;99.90;;;;;;5072869;28;20072;-84
2023/01/30 08:56:07;;;;;;;22.65;4.65;;;6.70;99.90;;;;;;5073141;28;20082;-83
2023/01/30 08:58:33;;;;;;;29.85;5.53;;;6.80;99.90;;;;;;5090736;28;20047;-84
2023/01/30 09:01:04;;;;;;;18.23;4.43;;;6.90;99.90;;;;;;5073973;28;20036;-84
2023/01/30 09:03:30;;;;;;;20.00;4.75;;;6.80;99.90;;;;;;5089722;28;20500;-84
2023/01/30 09:05:56;;;;;;;26.92;5.53;;;7.00;99.90;;;;;;5074191;28;20067;-85
2023/01/30 09:08:21;;;;;;;18.95;4.47;;;6.90;99.90;;;;;;5090798;28;20429;-83
2023/01/30 09:10:47;;;;;;;22.10;4.43;;;6.90;99.90;;;;;;5090355;28;20568;-84
2023/01/30 09:13:13;;;;;;;25.52;5.10;;;6.90;99.90;;;;;;5089300;28;20129;-84
2023/01/30 09:15:43;;;;;;;23.00;4.90;;;6.90;99.90;;;;;;5090531;28;20093;-84
2023/01/30 09:18:08;;;;;;;24.40;4.40;;;6.90;99.90;;;;;;5090549;28;20055;-84
2023/01/30 09:20:34;;;;;;;22.60;4.70;;;6.90;99.90;;;;;;5073527;28;20493;-83
2023/01/30 09:23:00;;;;;;;26.08;5.03;;;6.90;99.90;;;;;;5090353;28;20051;-85
2023/01/30 09:25:26;;;;;;;25.08;5.15;;;6.90;99.90;;;;;;5055588;28;20491;-84
2023/01/30 09:27:52;;;;;;;32.88;5.65;;;6.90;99.90;;;;;;5073659;28;20070;-84
2023/01/30 09:30:18;;;;;;;23.05;4.93;;;6.90;99.90;;;;;;5090247;28;20436;-85
2023/01/30 09:32:44;;;;;;;24.90;4.80;;;6.90;99.90;;;;;;5073497;28;20068;-84
2023/01/30 09:35:10;;;;;;;23.23;4.75;;;6.90;99.90;;;;;;5089125;28;20091;-85
2023/01/30 09:37:35;;;;;;;25.92;5.00;;;6.90;99.90;;;;;;5053314;28;20033;-85
2023/01/30 09:40:01;;;;;;;23.58;5.13;;;6.90;99.90;;;;;;5063208;28;20497;-84
2023/01/30 09:42:46;;;;;;;21.00;4.55;;;6.90;99.90;;;;;;5073778;28;20066;-85
2023/01/30 09:45:18;;;;;;;21.05;4.65;;;6.80;99.90;;;;;;5072004;28;20035;-85
2023/01/30 09:48:08;;;;;;;19.65;3.92;;;6.70;99.90;;;;;;5072185;28;20040;-85
2023/01/30 09:51:09;;;;;;;21.58;5.15;;;6.70;99.90;;;;;;5089606;28;20520;-84
2023/01/30 09:53:50;;;;;;;23.00;4.95;;;6.80;99.90;;;;;;5061673;28;20076;-85
2023/01/30 09:56:15;;;;;;;21.48;4.25;;;6.90;99.90;;;;;;5088551;28;20229;-84
2023/01/30 09:58:56;;;;;;;25.95;4.50;;;7.00;99.90;;;;;;5073173;28;20054;-85
2023/01/30 10:01:25;;;;;;;20.15;4.32;;;7.00;99.90;;;;;;5089837;28;20125;-84
2023/01/30 10:04:21;;;;;;;24.73;5.88;;;7.10;99.90;;;;;;5089898;28;20086;-84
2023/01/30 10:07:16;;;;;;;20.02;4.00;;;7.20;99.90;;;;;;5059155;28;20124;-85
2023/01/30 10:09:55;;;;;;;21.73;4.63;;;7.30;99.90;;;;;;5089184;28;20084;-84
2023/01/30 10:12:46;;;;;;;23.50;4.72;;;7.40;99.90;;;;;;5089453;28;20082;-85
2023/01/30 10:15:34;;;;;;;28.13;5.78;;;7.40;99.90;;;;;;5089324;28;20043;-84
2023/01/30 10:18:53;;;;;;;25.77;5.15;;;7.40;99.90;;;;;;5068334;28;20390;-85
2023/01/30 10:21:39;;;;;;;23.58;5.45;;;7.50;99.90;;;;;;5072082;28;20075;-84
2023/01/30 10:24:24;;;;;;;23.13;5.10;;;7.70;99.90;;;;;;5072107;28;20039;-84
2023/01/30 10:26:50;;;;;;;23.27;5.43;;;7.70;99.90;;;;;;5089303;28;20500;-83
2023/01/30 10:29:55;;;;;;;21.45;5.47;;;7.60;99.90;;;;;;5071713;28;20127;-85
2023/01/30 10:32:31;;;;;;;17.95;3.88;;;7.40;99.90;;;;;;5008464;28;20038;-83
2023/01/30 10:35:05;;;;;;;15.65;2.90;;;6.80;99.90;;;;;;5073054;28;20132;-84
2023/01/30 10:37:43;;;;;;;12.27;2.33;;;6.60;99.90;;;;;;5058284;28;20044;-84
2023/01/30 10:40:20;;;;;;;10.27;2.08;;;6.30;99.90;;;;;;5105956;28;20071;-84
2023/01/30 10:42:51;;;;;;;16.10;2.40;;;6.30;99.90;;;;;;5070710;28;20036;-84
2023/01/30 10:45:40;;;;;;;9.75;1.92;;;6.20;99.90;;;;;;5105919;28;20461;-84
2023/01/30 10:48:14;;;;;;;11.32;2.35;;;6.10;99.90;;;;;;5049497;28;20044;-84
2023/01/30 10:50:58;;;;;;;11.43;2.10;;;6.00;99.90;;;;;;5105428;28;20039;-84
2023/01/30 10:53:27;;;;;;;;;;;6.10;99.90;;;;;;5070672;28;20028;-84
2023/01/30 10:56:09;;;;;;;7.10;1.85;;;5.70;99.90;;;;;;5071693;28;19916;-84
2023/01/30 10:58:45;;;;;;;9.07;1.83;;;6.30;99.90;;;;;;5088545;28;20051;-83
2023/01/30 11:01:43;;;;;;;10.38;2.20;;;6.80;99.90;;;;;;5088747;28;20043;-83
2023/01/30 11:04:27;;;;;;;11.35;2.38;;;6.60;99.90;;;;;;5087229;28;20032;-83
2023/01/30 11:06:54;;;;;;;13.05;3.05;;;6.70;99.90;;;;;;5088626;28;20481;-84
2023/01/30 11:09:20;;;;;;;13.60;2.63;;;6.80;99.90;;;;;;5088252;28;20048;-84
2023/01/30 11:11:49;;;;;;;15.07;3.30;;;6.90;99.90;;;;;;5051964;28;20044;-83
2023/01/30 11:14:15;;;;;;;15.30;3.33;;;6.90;99.90;;;;;;5087582;28;20108;-84
2023/01/30 11:16:47;;;;;;;14.75;3.42;;;7.00;99.90;;;;;;5071810;28;20036;-83
2023/01/30 11:19:17;;;;;;;14.25;3.10;;;7.50;99.90;;;;;;5088991;28;20131;-83
2023/01/30 11:21:50;;;;;;;12.75;2.88;;;7.20;99.90;;;;;;5071548;28;20055;-84
2023/01/30 11:24:41;;;;;;;18.25;3.38;;;7.40;99.90;;;;;;5086918;28;20468;-84
2023/01/30 11:27:29;;;;;;;16.65;3.88;;;7.50;99.90;;;;;;5059406;28;20087;-83
2023/01/30 11:30:18;;;;;;;19.67;3.67;;;7.70;99.90;;;;;;5080318;28;20040;-83
2023/01/30 11:32:46;;;;;;;21.42;3.67;;;7.70;99.90;;;;;;5088330;28;20135;-84
2023/01/30 11:35:28;;;;;;;17.33;3.42;;;7.80;99.90;;;;;;5087168;28;20426;-84
2023/01/30 11:38:20;;;;;;;16.83;3.57;;;7.70;99.90;;;;;;5088128;28;20032;-83
2023/01/30 11:40:45;;;;;;;22.35;4.20;;;7.70;99.90;;;;;;5071336;28;20105;-84
2023/01/30 11:43:13;;;;;;;17.08;3.47;;;7.60;99.90;;;;;;5054863;28;20044;-85
2023/01/30 11:45:49;;;;;;;15.57;3.30;;;7.90;99.90;;;;;;5087583;28;20044;-84
2023/01/30 11:48:22;;;;;;;12.13;3.10;;;7.60;99.90;;;;;;5071639;28;20072;-84
2023/01/30 11:50:49;;;;;;;;;;;7.60;99.90;;;;;;5062081;28;20105;-84
2023/01/30 11:53:37;;;;;;;19.15;3.25;;;7.60;99.90;;;;;;5091956;28;19916;-84
2023/01/30 11:56:08;;;;;;;16.23;3.08;;;7.60;99.90;;;;;;5090595;28;20119;-84
2023/01/30 11:58:37;;;;;;;13.65;2.90;;;7.60;99.90;;;;;;5091057;28;20112;-83
2023/01/30 12:01:04;;;;;;;17.15;3.47;;;7.50;99.90;;;;;;5074879;28;20477;-84
2023/01/30 12:03:32;;;;;;;15.93;3.20;;;7.50;99.90;;;;;;5074850;28;20043;-84
2023/01/30 12:05:58;;;;;;;16.10;2.92;;;7.40;99.90;;;;;;5073859;28;20043;-84
2023/01/30 12:08:31;;;;;;;16.52;3.58;;;7.40;99.90;;;;;;5092953;28;20043;-84
2023/01/30 12:11:00;;;;;;;18.05;3.72;;;7.40;99.90;;;;;;5091679;28;20154;-84
2023/01/30 12:13:41;;;;;;;15.73;3.50;;;7.50;99.90;;;;;;5091666;28;20036;-84
2023/01/30 12:16:34;;;;;;;20.42;3.60;;;7.50;99.90;;;;;;5091530;28;20064;-84
2023/01/30 12:19:25;;;;;;;19.23;3.95;;;7.60;99.90;;;;;;5073340;28;20035;-84
2023/01/30 12:22:14;;;;;;;15.77;3.75;;;7.70;99.90;;;;;;5091507;28;20044;-83
2023/01/30 12:24:49;;;;;;;17.90;4.18;;;7.70;99.90;;;;;;5091525;28;20047;-82
2023/01/30 12:27:50;;;;;;;21.58;3.67;;;7.80;99.90;;;;;;5090006;28;20090;-83
2023/01/30 12:30:38;;;;;;;19.15;4.00;;;7.90;99.90;;;;;;5073172;28;20036;-83
2023/01/30 12:33:05;;;;;;;17.65;3.92;;;7.80;99.90;;;;;;5091310;28;20039;-84
2023/01/30 12:36:06;;;;;;;21.17;4.40;;;7.80;99.90;;;;;;5074719;28;20032;-84
2023/01/30 12:38:50;;;;;;;18.30;4.38;;;7.80;99.90;;;;;;5089585;28;20039;-83
2023/01/30 12:41:37;;;;;;;19.23;4.18;;;7.90;99.90;;;;;;5090981;28;20040;-83
2023/01/30 12:44:42;;;;;;;24.75;4.95;;;7.90;99.90;;;;;;5090923;28;20085;-83
2023/01/30 12:47:30;;;;;;;26.38;5.35;;;7.90;99.90;;;;;;5091220;28;20125;-83
2023/01/30 12:50:22;;;;;;;22.05;4.90;;;8.00;99.90;;;;;;5071427;28;20044;-83
2023/01/30 12:53:01;;;;;;;22.05;4.93;;;8.00;99.90;;;;;;5074244;28;20044;-83
2023/01/30 12:55:46;;;;;;;23.58;4.28;;;8.00;99.90;;;;;;5089939;28;20054;-83
2023/01/30 12:58:24;;;;;;;21.08;4.90;;;7.90;99.90;;;;;;5091525;28;20039;-83
2023/01/30 13:01:08;;;;;;;30.35;5.43;;;7.90;99.90;;;;;;5100150;28;20124;-84
2023/01/30 13:03:43;;;;;;;23.40;4.60;;;7.90;99.90;;;;;;5087487;28;20127;-84
2023/01/30 13:06:46;;;;;;;26.80;5.03;;;7.90;99.90;;;;;;5074043;28;20420;-84
2023/01/30 13:09:20;;;;;;;21.45;4.53;;;7.90;99.90;;;;;;5072470;28;20055;-83
2023/01/30 13:12:23;;;;;;;24.45;4.70;;;7.90;99.90;;;;;;5089689;28;20052;-83
2023/01/30 13:14:49;;;;;;;25.45;4.72;;;7.90;99.90;;;;;;5073634;28;20040;-83
2023/01/30 13:17:42;;;;;;;27.70;5.70;;;7.90;99.90;;;;;;5090440;28;20094;-84